Terminal Aerodrome Forecast
Issued by NWS

Home | Current Version | Previous Version | Text Only | Print | Product List | Glossary On
Versions: 1 2 3 4 5 6 7 8 9 10 11 12 13 14 15 16 17 18 19 20 21 22 23 24 25 26 27 28 29
000
FTUS43 KDLH 171423 AAB
TAFBRD
TAF AMD
KBRD 171423Z 1714/1812 00000KT 2SM BR SCT001
     FM171500 00000KT 4SM BR FEW002
     FM171600 27003KT P6SM SCT250
     FM180000 20004KT P6SM SKC=

USA.gov is the U.S. government's official web portal to all federal, state and local government web resources and services.